Share

Blytheville, AR

Blytheville Municipal (KHKA) Elev 256 ft | 35.94 °N, 89.83 °W | Change Station

Current weather conditions updated 16 minutes ago

Clear
Clear
61 °F
Feels Like 61 °F
N
6
Wind Variable Wind from South
Sunrise 6:18 AM
Sunset 7:38 PM
Moon Waning Gibbous

Today is forecast to be Cooler than yesterday.

Pressure 30.06 in
Visibility 10.0 miles
Clouds Clear
Dew Point 50 °F
Humidity 67%
Rainfall 0.00 in
Snow Depth Not available.
UV 0 out of 16
Pollen 9.70 out of 12
Air Quality Not available.
Flu Activity Sporadic
METAR KHKA 210953Z AUTO 19005KT 10SM CLR 16/10 A3006 RMK AO2 SLP177 T01610100 $

More Conditions Fewer Conditions

Pressure 30.06 in
Visibility 10.0 miles
Clouds Clear
Dew Point 50 °F
Humidity 67%
Rainfall 0.00 in
Snow Depth Not available.
UV 0 out of 16
Pollen 9.70 out of 12
Air Quality Not available.
Flu Activity Sporadic
METAR KHKA 210953Z AUTO 19005KT 10SM CLR 16/10 A3006 RMK AO2 SLP177 T01610100 $

More Conditions Fewer Conditions

10-Day Weather Forecast

Almanac

Astronomy

Apr. 21, 2014 Rise Set
Actual Time 6:18 AM CDT 7:38 PM CDT
Civil Twilight 5:52 AM CDT 8:05 PM CDT
Nautical Twilight 5:20 AM CDT 8:37 PM CDT
Astronomical Twilight 4:46 AM CDT 9:10 PM CDT
Moon 1:05 AM CDT 11:47 AM CDT
Length of Visible Light 14h 12m
Length of Day
13h 19m
Tomorrow will be 2m 5s longer.
Waning Gibbous, 60% of the Moon is Illuminated
Today
Waning Gibbous
Apr 22
Last Quarter
Apr 29
New
May 6
First Quarter
May 14
Full

Today's Extremes

State Highs State Lows

Community

  • Snowy Robin
    Snowy Robin
  • Sun Pillar and Geese
    Sun Pillar and Geese
  • Showers on the Way
    Showers on the Way
  • Easter Morning Fog
    Easter Morning Fog
  • Easter Dance
    Easter Dance

WunderPhotos

Upload Photos

1,703,585 photos uploaded!

Nearby

Snow Depth

Station Depth Elevation
No new snow has been reported.

Coastal Water Temperatures

Place Temperature
No Stations Reporting

Earthquake Activity

City Distance Mag. Time & Date
No recent earthquake activity has been reported nearby.
Minimum magnitude displayed is 2.5.

Nearby Weather Stations

Station Location Temp. Dew Point Humidity Wind Precip. Elev Updated Type
KC0UFP WX, Kennett, MO 59.0 °F 54 °F 85% SSW  at  0.0 mph - / hr 262 ft 4:55 AM CDT Normal
Kennett E911, Kennett, MO 63.0 °F 54 °F 72% SSW  at  0.0 mph 0.00 in / hr 262 ft 5:09 AM CDT Rapid Fire

Show More Stations Show Fewer Stations

What do you think?

We're not finished. Please let us know what you like, what you don't like, and what you are still missing.